^^
Datos históricos de la estación: Murcia-Puente Tocinos
Diario Informe para Julio 8, 2019 Unidades:  Ingés    Métrico   Ambas
Diario Semanal Mensual Anual
  Máxima: Mínima: Promedio:
Temperatura: 61.2 °F 42.4 °F 50.4 °F
Punto de rocio: 44.1 °F 32.5 °F 39.4 °F
Humedad: 81% 43% 67%
Velocidad viento: 6.4mph 0mph 4mph
Racha viento: 12mph - -
Viento- - SSO
Presión: 30.4 in 30.2 in -
Precipitación: 0 in    
 
 
Tabla de datos para Julio 8, 2019
Hora Temperatura Punto de rocio Presión Viento Velocidad viento Racha viento Humedad Intensidad lluvia(por hora) Nubes
00:04 48.6 °F 43 °F 30.4 in SSO 3.1 mph 4.6 mph 81% 0 in
00:09 48.4 °F 42.8 °F 30.4 in Sur 3 mph 6.2 mph 81% 0 in
00:14 48 °F 42.6 °F 30.4 in Sur 2.9 mph 6.9 mph 81% 0 in
00:19 48 °F 42.4 °F 30.4 in Sur 3.8 mph 7 mph 81% 0 in
00:24 48 °F 42.4 °F 30.4 in SSO 4.3 mph 7 mph 81% 0 in
00:29 48 °F 42.4 °F 30.4 in SSO 4.3 mph 7 mph 81% 0 in
00:34 48 °F 42.4 °F 30.4 in Sur 4.3 mph 5 mph 81% 0 in
00:39 48 °F 42.4 °F 30.4 in Sur 3.6 mph 5.2 mph 81% 0 in
00:44 48 °F 42.4 °F 30.4 in SSO 3.1 mph 5.2 mph 81% 0 in
00:49 48 °F 42.4 °F 30.4 in Sur 3.1 mph 5.2 mph 81% 0 in
00:54 48 °F 42.4 °F 30.4 in SE 3.1 mph 5.4 mph 81% 0 in
00:59 47.8 °F 42.4 °F 30.4 in SSE 3 mph 5 mph 81% 0 in
01:04 47.8 °F 42.3 °F 30.4 in Sur 2.9 mph 5.2 mph 81% 0 in
01:09 47.8 °F 42.3 °F 30.4 in SSO 3 mph 8.1 mph 81% 0 in
01:14 47.8 °F 42.3 °F 30.4 in SSO 3.1 mph 8 mph 81% 0 in
01:19 47.8 °F 42.3 °F 30.4 in SSO 3.7 mph 6.9 mph 81% 0 in
01:24 47.8 °F 42.3 °F 30.4 in SSO 4 mph 7.4 mph 81% 0 in
01:29 47.8 °F 42.3 °F 30.4 in SSO 4.2 mph 7.4 mph 81% 0 in
01:34 47.8 °F 42.1 °F 30.4 in SSO 4.3 mph 7 mph 80.2% 0 in
01:39 47.8 °F 42.1 °F 30.4 in SSO 4.3 mph 7 mph 80% 0 in
01:44 47.8 °F 41.9 °F 30.4 in SSO 4.3 mph 7 mph 80% 0 in
01:49 47.7 °F 41.7 °F 30.4 in SSO 4.1 mph 7 mph 80% 0 in
01:54 47.7 °F 41.7 °F 30.4 in Sur 4 mph 6.2 mph 80% 0 in
01:59 47.5 °F 41.5 °F 30.4 in SSO 4.2 mph 6.9 mph 80% 0 in
02:04 47.5 °F 41.5 °F 30.4 in SSO 4.3 mph 9.2 mph 80% 0 in
02:09 47.5 °F 41.5 °F 30.4 in SSO 4.8 mph 9 mph 80% 0 in
02:14 47.5 °F 41.5 °F 30.4 in SO 5.2 mph 7 mph 80% 0 in
02:19 47.7 °F 41.7 °F 30.4 in SO 4.9 mph 9.2 mph 80% 0 in
02:24 47.7 °F 41.5 °F 30.4 in SO 4.7 mph 9 mph 79.2% 0 in
02:29 47.7 °F 41.5 °F 30.4 in SO 4.7 mph 8.1 mph 79% 0 in
02:34 47.7 °F 41.5 °F 30.4 in SO 4.7 mph 8.1 mph 79% 0 in
02:39 47.8 °F 41.4 °F 30.4 in SSO 4.7 mph 8.1 mph 78.1% 0 in
02:44 47.8 °F 41.4 °F 30.4 in SO 4.7 mph 8.1 mph 78% 0 in
02:49 47.8 °F 41.4 °F 30.4 in SSO 5 mph 8.1 mph 78% 0 in
02:54 47.7 °F 41.2 °F 30.4 in SO 5.2 mph 8 mph 78% 0 in
02:59 47.7 °F 41.2 °F 30.4 in SO 4.4 mph 7 mph 78% 0 in
03:04 47.7 °F 41 °F 30.4 in SO 4 mph 7.4 mph 78% 0 in
03:09 47.5 °F 41 °F 30.4 in OSO 4.2 mph 7 mph 78% 0 in
03:14 47.5 °F 41.2 °F 30.4 in SO 4.3 mph 6 mph 78.9% 0 in
03:19 47.3 °F 41.2 °F 30.4 in SO 3.9 mph 6.9 mph 79% 0 in
03:24 47.3 °F 41 °F 30.4 in SO 3.6 mph 7 mph 79% 0 in
03:29 47.1 °F 40.8 °F 30.4 in SO 3.9 mph 6.2 mph 79% 0 in
03:34 47.1 °F 40.8 °F 30.4 in SSO 4 mph 6 mph 79% 0 in
03:39 46.9 °F 40.8 °F 30.4 in Sur 3.8 mph 6 mph 79% 0 in
03:44 46.6 °F 40.6 °F 30.4 in SSO 3.6 mph 6 mph 79.8% 0 in
03:49 46.2 °F 40.6 °F 30.4 in SO 3.6 mph 6.2 mph 80.4% 0 in
03:54 46.2 °F 40.5 °F 30.4 in SSO 3.6 mph 6.2 mph 80.4% 0 in
03:59 46.2 °F 40.3 °F 30.4 in SSO 3.6 mph 6.9 mph 79.6% 0 in
04:04 46.2 °F 40.1 °F 30.4 in SSO 3.6 mph 10.7 mph 79% 0 in
04:09 46.2 °F 39.7 °F 30.4 in SSO 4.7 mph 11.5 mph 77.9% 0 in
04:14 46.2 °F 39.4 °F 30.4 in SSO 5.4 mph 12 mph 76.7% 0 in
04:19 46.2 °F 39 °F 30.4 in SSO 6 mph 10 mph 76% 0 in
04:24 46 °F 38.7 °F 30.4 in Sur 6.4 mph 9 mph 75.2% 0 in
04:29 46 °F 38.8 °F 30.4 in SSO 5.7 mph 9.2 mph 76% 0 in
04:34 45.9 °F 38.7 °F 30.4 in SSO 5.2 mph 9.7 mph 76% 0 in
04:39 45.9 °F 39 °F 30.4 in SSO 5.8 mph 10 mph 76.7% 0 in
04:44 45.9 °F 39 °F 30.4 in SSO 6.2 mph 9.2 mph 76.7% 0 in
04:49 45.9 °F 38.7 °F 30.4 in SO 6 mph 9.7 mph 75.8% 0 in
04:54 45.9 °F 38.3 °F 30.4 in SSO 5.9 mph 10 mph 75% 0 in
04:59 45.7 °F 38.1 °F 30.4 in SO 5.9 mph 9 mph 75% 0 in
05:04 45.7 °F 38.1 °F 30.4 in SSO 5.9 mph 7 mph 75% 0 in
05:09 45.7 °F 38.1 °F 30.4 in SO 4.8 mph 6 mph 75% 0 in
05:14 45.3 °F 37.6 °F 30.4 in OSO 4 mph 6.2 mph 74.1% 0 in
05:19 45.3 °F 37.4 °F 30.4 in OSO 4 mph 6.9 mph 73.4% 0 in
05:24 45.3 °F 37.2 °F 30.4 in Oeste 4 mph 7 mph 73% 0 in
05:29 45.3 °F 37.2 °F 30.4 in Oeste 3.8 mph 7 mph 73% 0 in
05:34 45.1 °F 37 °F 30.4 in OSO 3.6 mph 6.9 mph 73% 0 in
05:39 45.1 °F 37 °F 30.4 in OSO 3.9 mph 8.5 mph 73% 0 in
05:44 45.1 °F 36.7 °F 30.4 in OSO 4 mph 9 mph 72% 0 in
05:49 45.1 °F 36.7 °F 30.4 in SO 4.4 mph 8 mph 72% 0 in
05:54 45.1 °F 36.7 °F 30.4 in SO 4.7 mph 7 mph 72% 0 in
05:59 45.1 °F 36.7 °F 30.4 in OSO 4.2 mph 6.9 mph 72% 0 in
06:04 45.1 °F 36.7 °F 30.4 in OSO 4 mph 8.1 mph 72% 0 in
06:09 45.1 °F 36.5 °F 30.4 in SO 4.7 mph 8.7 mph 71.7% 0 in
06:14 45.1 °F 36.3 °F 30.4 in SO 5.2 mph 9 mph 71% 0 in
06:19 45.1 °F 36.3 °F 30.4 in SO 4.5 mph 6.2 mph 71.2% 0 in
06:24 45.1 °F 36.9 °F 30.4 in SSO 4 mph 6.2 mph 72.9% 0 in
06:29 45 °F 37.4 °F 30.4 in SSO 4 mph 6 mph 74.7% 0 in
06:34 44.6 °F 37.2 °F 30.4 in Sur 4 mph 6.9 mph 75.5% 0 in
06:39 44.4 °F 37.2 °F 30.4 in SO 4.2 mph 8.1 mph 76% 0 in
06:44 44.4 °F 36.7 °F 30.4 in SSO 4.3 mph 9.2 mph 74.4% 0 in
06:49 44.6 °F 36 °F 30.4 in SO 5 mph 9.2 mph 71.8% 0 in
06:54 44.8 °F 35.4 °F 30.4 in SO 5.4 mph 11.5 mph 69.4% 0 in
06:59 45 °F 35.8 °F 30.4 in SSO 5.7 mph 12 mph 69.8% 0 in
07:04 44.8 °F 36.3 °F 30.4 in SSO 5.9 mph 6 mph 72% 0 in
07:09 44.6 °F 36.5 °F 30.4 in SSO 4.9 mph 8.5 mph 73.2% 0 in
07:14 44.2 °F 36.1 °F 30.4 in SO 4.3 mph 9 mph 73.3% 0 in
07:19 44.1 °F 36 °F 30.4 in SSO 4.8 mph 8.7 mph 73% 0 in
07:24 43.9 °F 35.8 °F 30.4 in SSO 5.2 mph 9.2 mph 73% 0 in
07:29 43.7 °F 35.8 °F 30.4 in SSO 4.9 mph 9 mph 73.5% 0 in
07:34 43.5 °F 35.8 °F 30.4 in SO 4.7 mph 7.4 mph 74.1% 0 in
07:39 43.5 °F 36.1 °F 30.4 in SO 4.7 mph 7.4 mph 75% 0 in
07:44 43.3 °F 36 °F 30.4 in SO 4.7 mph 7.6 mph 74.9% 0 in
07:49 43.3 °F 35.4 °F 30.4 in SO 5 mph 8.5 mph 73.7% 0 in
07:54 43.3 °F 35.2 °F 30.4 in SO 5.2 mph 9 mph 72.9% 0 in
07:59 43.3 °F 34.7 °F 30.4 in SO 5.2 mph 9.7 mph 71.5% 0 in
08:04 43.2 °F 34.5 °F 30.4 in SSO 5.2 mph 10 mph 71% 0 in
08:09 43.2 °F 34.2 °F 30.4 in SO 4.9 mph 9.2 mph 70.3% 0 in
08:14 43.2 °F 33.8 °F 30.4 in OSO 4.7 mph 10.7 mph 69.4% 0 in
08:19 43 °F 33.4 °F 30.4 in OSO 5.4 mph 11 mph 68.5% 0 in
08:24 43 °F 33.1 °F 30.4 in OSO 5.9 mph 9 mph 68.2% 0 in
08:29 42.8 °F 33.3 °F 30.4 in SO 4.7 mph 6.9 mph 69% 0 in
08:34 42.8 °F 33.3 °F 30.4 in OSO 4 mph 7 mph 69% 0 in
08:39 42.8 °F 33.3 °F 30.4 in OSO 4 mph 7 mph 69% 0 in
08:44 42.6 °F 33.3 °F 30.4 in OSO 4 mph 6 mph 69% 0 in
08:49 42.4 °F 33.1 °F 30.4 in OSO 3.8 mph 6.9 mph 69% 0 in
08:54 42.4 °F 33.1 °F 30.4 in OSO 3.6 mph 7 mph 69% 0 in
08:59 42.4 °F 32.9 °F 30.4 in SO 3.9 mph 7 mph 69% 0 in
09:04 42.4 °F 33.1 °F 30.4 in SSO 4 mph 6 mph 69% 0 in
09:09 42.4 °F 32.7 °F 30.4 in SSO 3.5 mph 6.2 mph 68.4% 0 in
09:14 42.4 °F 32.5 °F 30.4 in SSO 3.1 mph 6 mph 68% 0 in
09:19 42.4 °F 32.7 °F 30.4 in Sur 3.4 mph 6.2 mph 68% 0 in
09:24 42.8 °F 33.1 °F 30.4 in SSO 3.6 mph 6.9 mph 68% 0 in
09:29 43.2 °F 33.3 °F 30.4 in SSO 3.9 mph 7 mph 68% 0 in
09:34 43.3 °F 33.3 °F 30.4 in SO 4 mph 6.2 mph 67.2% 0 in
09:39 43.5 °F 32.9 °F 30.4 in OSO 3.8 mph 8.5 mph 65.8% 0 in
09:44 43.9 °F 32.9 °F 30.4 in OSO 3.6 mph 9 mph 65% 0 in
09:49 43.9 °F 32.9 °F 30.4 in OSO 4.5 mph 7 mph 64.8% 0 in
09:54 44.1 °F 32.7 °F 30.4 in Oeste 5.2 mph 6.2 mph 64.3% 0 in
09:59 44.2 °F 32.7 °F 30.4 in SO 4.4 mph 6 mph 64% 0 in
10:04 44.4 °F 33.1 °F 30.4 in OSO 4 mph 6.2 mph 64% 0 in
10:09 45 °F 33.3 °F 30.4 in SO 3.4 mph 6 mph 63.8% 0 in
10:14 45.1 °F 33.1 °F 30.4 in SSO 2.9 mph 6 mph 62.5% 0 in
10:19 45.5 °F 33.3 °F 30.4 in SSO 3.3 mph 6 mph 62.2% 0 in
10:24 45.7 °F 33.4 °F 30.4 in SSO 3.6 mph 6 mph 62% 0 in
10:29 45.7 °F 33.4 °F 30.4 in SSO 3.6 mph 6.2 mph 62.2% 0 in
10:34 45.7 °F 33.8 °F 30.4 in SSO 3.6 mph 6 mph 62.9% 0 in
10:39 45.9 °F 34 °F 30.4 in SSO 3.6 mph 6 mph 63% 0 in
10:44 46 °F 33.8 °F 30.4 in SO 3.6 mph 6 mph 62.2% 0 in
10:49 46.2 °F 34 °F 30.4 in OSO 3.3 mph 6.2 mph 62% 0 in
10:54 46.6 °F 34 °F 30.4 in Oeste 3.1 mph 6.9 mph 61.6% 0 in
10:59 46.8 °F 34 °F 30.4 in OSO 3.7 mph 7 mph 61% 0 in
11:04 46.9 °F 34.3 °F 30.4 in ONO 4 mph 7 mph 61% 0 in
11:09 47.3 °F 34.2 °F 30.4 in ONO 3.5 mph 6 mph 60.1% 0 in
11:14 47.7 °F 34.3 °F 30.4 in SSO 3.1 mph 6.9 mph 59.6% 0 in
11:19 48 °F 34.3 °F 30.4 in SSO 3.4 mph 7 mph 59% 0 in
11:24 48.4 °F 34.7 °F 30.4 in Sur 3.6 mph 6 mph 59% 0 in
11:29 48.7 °F 34.7 °F 30.4 in SSO 3.9 mph 7.4 mph 58.1% 0 in
11:34 49.1 °F 34.9 °F 30.4 in OSO 4 mph 7.4 mph 57.7% 0 in
11:39 49.3 °F 34.7 °F 30.4 in SO 4 mph 7.6 mph 57.2% 0 in
11:44 49.5 °F 34.9 °F 30.4 in SO 4 mph 8 mph 57.2% 0 in
11:49 49.8 °F 35.1 °F 30.4 in SO 4 mph 7.6 mph 56.8% 0 in
11:54 49.8 °F 34.7 °F 30.4 in OSO 4 mph 8.1 mph 56.2% 0 in
11:59 50.2 °F 35.4 °F 30.4 in SSO 4.2 mph 8 mph 57% 0 in
12:04 50.4 °F 35.2 °F 30.4 in SO 4.3 mph 8.1 mph 56% 0 in
12:09 50.5 °F 35.1 °F 30.4 in OSO 4.1 mph 8 mph 55.3% 0 in
12:14 50.7 °F 35.1 °F 30.4 in Oeste 4 mph 6.4 mph 55% 0 in
12:19 51.3 °F 35.4 °F 30.4 in OSO 3.4 mph 7 mph 54.6% 0 in
12:24 51.4 °F 35.2 °F 30.4 in Oeste 2.9 mph 7.4 mph 54% 0 in
12:29 51.4 °F 35.2 °F 30.4 in OSO 3.5 mph 7 mph 54% 0 in
12:34 51.6 °F 35.4 °F 30.4 in OSO 4 mph 7 mph 54% 0 in
12:39 51.6 °F 35.4 °F 30.4 in Oeste 4.4 mph 7.4 mph 54% 0 in
12:44 51.6 °F 36 °F 30.4 in OSO 4.7 mph 7 mph 54.8% 0 in
12:49 52.2 °F 36.1 °F 30.4 in SO 3.7 mph 6.2 mph 54.6% 0 in
12:54 52.3 °F 36.7 °F 30.4 in SO 3.1 mph 6.9 mph 55% 0 in
12:59 52.7 °F 36.9 °F 30.4 in OSO 3.4 mph 7 mph 54.8% 0 in
13:04 53.1 °F 37 °F 30.4 in Oeste 3.6 mph 6 mph 54.3% 0 in
13:09 53.4 °F 37.2 °F 30.3 in OSO 3.6 mph 7.4 mph 54% 0 in
13:14 53.8 °F 37.4 °F 30.3 in SSO 3.6 mph 7 mph 54% 0 in
13:19 54 °F 37.8 °F 30.3 in OSO 3.3 mph 6 mph 54% 0 in
13:24 54.3 °F 37.9 °F 30.3 in Oeste 3.1 mph 6 mph 54% 0 in
13:29 54.7 °F 38.3 °F 30.3 in SO 2.7 mph 6.2 mph 53.7% 0 in
13:34 55 °F 38.1 °F 30.3 in Oeste 2.4 mph 6.4 mph 53% 0 in
13:39 55 °F 38.5 °F 30.3 in Oeste 2.9 mph 7 mph 53.5% 0 in
13:44 55.2 °F 38.5 °F 30.3 in SSO 3.1 mph 6.9 mph 53% 0 in
13:49 55.6 °F 38.7 °F 30.3 in SE 3.1 mph 7 mph 53% 0 in
13:54 55.9 °F 38.8 °F 30.3 in SSO 3.1 mph 6.4 mph 52.9% 0 in
13:59 56.1 °F 38.8 °F 30.3 in Oeste 3.1 mph 7 mph 52.2% 0 in
14:04 55.9 °F 39 °F 30.3 in Oeste 3.1 mph 6.4 mph 53% 0 in
14:09 56.1 °F 39.4 °F 30.3 in SSO 3.4 mph 7.4 mph 53.1% 0 in
14:14 56.5 °F 39.6 °F 30.3 in SO 3.6 mph 7 mph 53.1% 0 in
14:19 56.7 °F 39.7 °F 30.3 in SSO 4 mph 9.2 mph 53.4% 0 in
14:24 56.8 °F 39.7 °F 30.3 in SO 4.3 mph 9 mph 53% 0 in
14:29 56.8 °F 40.1 °F 30.3 in OSO 4.3 mph 7 mph 53.2% 0 in
14:34 57.4 °F 40.8 °F 30.3 in SO 4.3 mph 8.7 mph 54.1% 0 in
14:39 57.4 °F 41.5 °F 30.3 in SSO 4.3 mph 9.2 mph 55.3% 0 in
14:44 57.6 °F 41.5 °F 30.3 in Sur 4.3 mph 9.2 mph 55.3% 0 in
14:49 57.7 °F 41.4 °F 30.3 in Sur 4.5 mph 10.2 mph 54.5% 0 in
14:54 57.7 °F 41.2 °F 30.3 in Sur 4.7 mph 10.4 mph 53.9% 0 in
14:59 57.7 °F 41.4 °F 30.3 in SSO 5.7 mph 10 mph 54% 0 in
15:04 58.1 °F 41.4 °F 30.3 in Sur 6.2 mph 8.1 mph 53.7% 0 in
15:09 58.3 °F 41.4 °F 30.3 in SSO 5 mph 8 mph 53.1% 0 in
15:14 58.5 °F 41.4 °F 30.3 in SSO 4.3 mph 8.1 mph 53% 0 in
15:19 58.6 °F 41.5 °F 30.3 in SSO 4.8 mph 8.5 mph 53% 0 in
15:24 58.6 °F 41.5 °F 30.3 in SSO 5.2 mph 9 mph 53% 0 in
15:29 58.8 °F 41.7 °F 30.3 in SSO 5.2 mph 9.7 mph 53% 0 in
15:34 59 °F 41.9 °F 30.3 in SSO 5.2 mph 10 mph 53% 0 in
15:39 59.2 °F 42.1 °F 30.3 in Sur 5.3 mph 10 mph 53.2% 0 in
15:44 59.4 °F 42.3 °F 30.3 in Sur 5.4 mph 7.4 mph 53% 0 in
15:49 59.5 °F 42.3 °F 30.3 in SO 4.7 mph 7 mph 52.7% 0 in
15:54 59.7 °F 42.3 °F 30.3 in Sur 4.3 mph 8.1 mph 52.4% 0 in
15:59 59.9 °F 42.3 °F 30.3 in SSO 4.3 mph 8 mph 52% 0 in
16:04 60.1 °F 41.5 °F 30.3 in SO 4.3 mph 8.5 mph 50.2% 0 in
16:09 60.3 °F 41.5 °F 30.3 in SO 4.3 mph 9 mph 50% 0 in
16:14 60.3 °F 41.2 °F 30.3 in SSO 4.3 mph 9.2 mph 49.4% 0 in
16:19 60.3 °F 41 °F 30.3 in SSO 4.5 mph 9 mph 48.7% 0 in
16:24 60.4 °F 40.6 °F 30.2 in SSO 4.7 mph 9.7 mph 48% 0 in
16:29 60.4 °F 40.6 °F 30.2 in SO 5 mph 10 mph 48% 0 in
16:34 60.6 °F 40.6 °F 30.2 in SSO 5.2 mph 9 mph 47.7% 0 in
16:39 60.6 °F 40.3 °F 30.2 in SSO 4.9 mph 9 mph 47% 0 in
16:44 60.6 °F 39.9 °F 30.2 in SO 4.7 mph 8 mph 46.4% 0 in
16:49 61 °F 39.9 °F 30.2 in SO 4.5 mph 7 mph 46% 0 in
16:54 61 °F 39.9 °F 30.2 in SSO 4.3 mph 7 mph 46% 0 in
16:59 61 °F 39.9 °F 30.2 in SO 4.5 mph 7 mph 46% 0 in
17:04 61.2 °F 39.7 °F 30.2 in SO 4.7 mph 7 mph 45.3% 0 in
17:09 61.2 °F 39.6 °F 30.2 in SO 4 mph 6 mph 44.9% 0 in
17:14 61.2 °F 39.2 °F 30.2 in Oeste 3.6 mph 5.2 mph 44.1% 0 in
17:19 61.2 °F 39 °F 30.2 in Oeste 3.2 mph 5 mph 44% 0 in
17:24 61.2 °F 39 °F 30.2 in SO 2.9 mph 5.9 mph 44% 0 in
17:29 61.2 °F 38.8 °F 30.2 in OSO 3.3 mph 6 mph 43.8% 0 in
17:34 61 °F 38.8 °F 30.2 in OSO 3.6 mph 6 mph 44% 0 in
17:39 61.2 °F 38.5 °F 30.2 in OSO 2.5 mph 5 mph 43.3% 0 in
17:44 61.2 °F 38.7 °F 30.2 in OSO 1.8 mph 4 mph 43.2% 0 in
17:49 61.2 °F 38.5 °F 30.2 in OSO 1.6 mph 2 mph 43% 0 in
17:54 61 °F 40.1 °F 30.2 in Sur 1.4 mph 4.7 mph 46.3% 0 in
17:59 60.1 °F 42.1 °F 30.2 in SE 2.1 mph 5 mph 51.3% 0 in
18:04 59.4 °F 42.4 °F 30.2 in SE 2.4 mph 5.4 mph 53.6% 0 in
18:09 58.8 °F 42.6 °F 30.2 in SE 2.8 mph 6 mph 55% 0 in
18:14 58.5 °F 42.6 °F 30.2 in SE 3.1 mph 5.2 mph 55.9% 0 in
18:19 57.9 °F 42.8 °F 30.2 in SSE 3.1 mph 5.8 mph 56.9% 0 in
18:24 57.6 °F 42.8 °F 30.2 in SSE 3.1 mph 6 mph 57.7% 0 in
18:29 57.4 °F 43.2 °F 30.2 in SSE 2.7 mph 6 mph 58.9% 0 in
18:34 57.2 °F 43.2 °F 30.2 in SSE 2.4 mph 3.5 mph 59.6% 0 in
18:39 57 °F 43.3 °F 30.2 in SSE 2.1 mph 3 mph 60% 0 in
18:44 57 °F 43.3 °F 30.2 in SSE 1.8 mph 3.1 mph 60% 0 in
18:49 56.8 °F 43.2 °F 30.2 in SSE 1.6 mph 4 mph 60% 0 in
18:54 56.7 °F 43 °F 30.2 in SSE 1.4 mph 5 mph 60% 0 in
18:59 56.5 °F 43 °F 30.2 in SSE 1.8 mph 5 mph 60.4% 0 in
19:04 56.1 °F 42.8 °F 30.2 in SSE 2 mph 2.9 mph 61% 0 in
19:09 55.6 °F 42.4 °F 30.2 in SSE 0.8 mph 3 mph 61% 0 in
19:14 55 °F 41.9 °F 30.2 in Calm     61% 0 in
19:19 54.9 °F 41.9 °F 30.2 in Calm   2.4 mph 61.8% 0 in
19:24 54.3 °F 41.7 °F 30.2 in Calm   5.9 mph 62.2% 0 in
19:29 54.3 °F 42.1 °F 30.2 in SO 1.1 mph 6.9 mph 63.4% 0 in
19:34 54.3 °F 42.8 °F 30.2 in SO 2 mph 7 mph 65% 0 in
19:39 54.3 °F 43.2 °F 30.2 in SO 3.2 mph 6.2 mph 66% 0 in
19:44 54.1 °F 43.3 °F 30.2 in SO 4 mph 7.4 mph 66.6% 0 in
19:49 54 °F 43.5 °F 30.2 in SO 4.4 mph 7.4 mph 67.8% 0 in
19:54 53.8 °F 43.7 °F 30.2 in SO 4.7 mph 8.1 mph 68.7% 0 in
19:59 53.6 °F 43.9 °F 30.2 in SSO 4.5 mph 9.2 mph 69.7% 0 in
20:04 53.4 °F 44.1 °F 30.2 in SSO 4.3 mph 9 mph 70.3% 0 in
20:09 53.2 °F 44.1 °F 30.2 in SO 4.8 mph 9 mph 71% 0 in
20:14 53.1 °F 43.9 °F 30.2 in SSO 5.2 mph 8 mph 71.3% 0 in
20:19 52.7 °F 43.9 °F 30.2 in SSO 4.9 mph 7 mph 72% 0 in
20:24 52.3 °F 43.9 °F 30.2 in SSO 4.7 mph 7 mph 72.7% 0 in
20:29 52.2 °F 43.9 °F 30.2 in SSO 4.3 mph 7 mph 73% 0 in
20:34 52 °F 43.7 °F 30.2 in Sur 4 mph 5.2 mph 73.2% 0 in
20:39 52 °F 43.9 °F 30.2 in Sur 3.5 mph 5 mph 74% 0 in
20:44 51.8 °F 43.7 °F 30.2 in SSE 3.1 mph 5 mph 74% 0 in
20:49 51.6 °F 43.7 °F 30.2 in Sur 3.1 mph 5.9 mph 74.2% 0 in
20:54 51.4 °F 43.7 °F 30.2 in Sur 3.1 mph 6 mph 75% 0 in
20:59 51.3 °F 43.7 °F 30.2 in Sur 3.7 mph 6.4 mph 75.4% 0 in
21:04 51.1 °F 43.9 °F 30.2 in Sur 4 mph 7 mph 76% 0 in
21:09 50.9 °F 43.7 °F 30.2 in SSO 4 mph 7 mph 76.3% 0 in
21:14 50.9 °F 43.9 °F 30.2 in SSO 4 mph 6.2 mph 77% 0 in
21:19 50.9 °F 43.9 °F 30.2 in Sur 4 mph 6.2 mph 76.9% 0 in
21:24 50.7 °F 43.5 °F 30.2 in Sur 4 mph 6.9 mph 76% 0 in
21:29 50.7 °F 43.3 °F 30.2 in Sur 3.5 mph 8.5 mph 76% 0 in
21:34 50.7 °F 43.3 °F 30.2 in SO 3.1 mph 9 mph 76% 0 in
21:39 50.9 °F 43.5 °F 30.2 in SO 3.6 mph 10 mph 76% 0 in
21:44 51.1 °F 43.5 °F 30.2 in SSO 4 mph 10.4 mph 75% 0 in
21:49 51.3 °F 43.5 °F 30.2 in SSO 4.7 mph 10 mph 74.8% 0 in
21:54 51.1 °F 43.2 °F 30.2 in SO 5.2 mph 7.4 mph 74% 0 in
21:59 50.7 °F 43 °F 30.2 in SO 3.9 mph 7 mph 74.5% 0 in
22:04 50.5 °F 43 °F 30.2 in SO 3.1 mph 6.2 mph 75% 0 in
22:09 50.5 °F 43 °F 30.2 in Sur 3.1 mph 6 mph 75% 0 in
22:14 50.4 °F 42.6 °F 30.2 in Sur 3.1 mph 5 mph 75% 0 in
22:19 50 °F 42.6 °F 30.2 in Sur 3 mph 6.2 mph 75.9% 0 in
22:24 49.6 °F 42.8 °F 30.2 in SSO 2.9 mph 6 mph 76.9% 0 in
22:29 49.6 °F 42.6 °F 30.2 in Sur 3 mph 6 mph 77% 0 in
22:34 49.6 °F 42.8 °F 30.2 in Sur 3.1 mph 6 mph 77.3% 0 in
22:39 49.5 °F 43 °F 30.2 in Sur 3 mph 6 mph 78% 0 in
22:44 49.5 °F 43 °F 30.2 in Sur 2.9 mph 6.9 mph 78% 0 in
22:49 49.3 °F 42.8 °F 30.2 in Sur 3.7 mph 8.1 mph 78% 0 in
22:54 49.1 °F 42.4 °F 30.2 in Sur 4.3 mph 8 mph 78% 0 in
22:59 48.6 °F 42.1 °F 30.2 in SSE 4.5 mph 7.4 mph 78% 0 in
23:04 47.8 °F 41.5 °F 30.2 in Sur 4.7 mph 7 mph 78.4% 0 in
23:09 47.7 °F 41.4 °F 30.2 in Sur 5 mph 7 mph 79% 0 in
23:14 47.5 °F 41.4 °F 30.2 in Sur 5.2 mph 7 mph 79% 0 in
23:19 47.5 °F 41.4 °F 30.2 in Sur 4.5 mph 7 mph 79.1% 0 in
23:24 47.7 °F 41.5 °F 30.2 in SSO 4 mph 6.9 mph 79.6% 0 in
23:29 47.7 °F 41.9 °F 30.2 in SSO 4.2 mph 7 mph 79.9% 0 in
23:34 47.8 °F 41.5 °F 30.2 in Sur 4.3 mph 8.5 mph 79.1% 0 in
23:39 47.8 °F 41.7 °F 30.2 in SSO 4.5 mph 9 mph 79.3% 0 in
23:44 47.8 °F 41.7 °F 30.2 in SSO 4.7 mph 9 mph 79.2% 0 in
23:49 48 °F 41.7 °F 30.2 in SSO 4.7 mph 9.2 mph 79% 0 in
23:54 48.2 °F 42.1 °F 30.2 in SO 4.7 mph 11.2 mph 79% 0 in
23:59 48.6 °F 42.1 °F 30.2 in SSO 5.2 mph 12 mph 78.1% 0 in
Murcia-Puente Tocinos, España
Compliments of Weather Underground - 3 mb

La estación de MeteoMurcia.com, publica sus datos en los siguientes proyectos:

Weather Underground PWS IMURCIAP2 Meteoclimatic www.awekas.at

W3Counter
Web Analytics